sensor_id;sensor_type;location;lat;lon;timestamp;temperature;humidity
18654;DHT22;9456;47.824;16.228;2023-07-02T00:00:33;20.30;99.90
18654;DHT22;9456;47.824;16.228;2023-07-02T00:03:02;20.30;99.90
18654;DHT22;9456;47.824;16.228;2023-07-02T00:05:31;20.20;99.90
18654;DHT22;9456;47.824;16.228;2023-07-02T00:08:00;20.20;99.90
18654;DHT22;9456;47.824;16.228;2023-07-02T00:10:29;20.10;99.90
18654;DHT22;9456;47.824;16.228;2023-07-02T00:12:58;20.10;99.90
18654;DHT22;9456;47.824;16.228;2023-07-02T00:15:27;20.00;99.90
18654;DHT22;9456;47.824;16.228;2023-07-02T00:17:55;20.00;99.90
18654;DHT22;9456;47.824;16.228;2023-07-02T00:20:24;20.00;99.90
18654;DHT22;9456;47.824;16.228;2023-07-02T00:22:53;19.90;99.90
18654;DHT22;9456;47.824;16.228;2023-07-02T00:25:22;19.90;99.90
18654;DHT22;9456;47.824;16.228;2023-07-02T00:27:51;19.90;99.90
18654;DHT22;9456;47.824;16.228;2023-07-02T00:30:20;19.90;99.90
18654;DHT22;9456;47.824;16.228;2023-07-02T00:32:53;19.90;99.90
18654;DHT22;9456;47.824;16.228;2023-07-02T00:35:22;19.90;99.90
18654;DHT22;9456;47.824;16.228;2023-07-02T00:37:51;19.90;99.90
18654;DHT22;9456;47.824;16.228;2023-07-02T00:40:20;19.90;99.90
18654;DHT22;9456;47.824;16.228;2023-07-02T00:42:48;19.90;99.90
18654;DHT22;9456;47.824;16.228;2023-07-02T00:45:17;19.90;99.90
18654;DHT22;9456;47.824;16.228;2023-07-02T00:47:46;20.00;99.90
18654;DHT22;9456;47.824;16.228;2023-07-02T00:50:15;20.00;99.90
18654;DHT22;9456;47.824;16.228;2023-07-02T00:52:44;20.00;99.90
18654;DHT22;9456;47.824;16.228;2023-07-02T00:55:13;20.00;99.90
18654;DHT22;9456;47.824;16.228;2023-07-02T00:57:42;20.00;99.90
18654;DHT22;9456;47.824;16.228;2023-07-02T01:00:12;20.00;99.90
18654;DHT22;9456;47.824;16.228;2023-07-02T01:02:41;20.00;99.90
18654;DHT22;9456;47.824;16.228;2023-07-02T01:05:14;20.00;99.90
18654;DHT22;9456;47.824;16.228;2023-07-02T01:07:43;20.00;99.90
18654;DHT22;9456;47.824;16.228;2023-07-02T01:10:12;20.10;99.90
18654;DHT22;9456;47.824;16.228;2023-07-02T01:12:41;20.10;99.90
18654;DHT22;9456;47.824;16.228;2023-07-02T01:15:10;20.10;99.90
18654;DHT22;9456;47.824;16.228;2023-07-02T01:17:39;20.20;99.90
18654;DHT22;9456;47.824;16.228;2023-07-02T01:20:09;20.30;99.90
18654;DHT22;9456;47.824;16.228;2023-07-02T01:22:38;20.30;99.90
18654;DHT22;9456;47.824;16.228;2023-07-02T01:25:08;20.30;99.90
18654;DHT22;9456;47.824;16.228;2023-07-02T01:27:37;20.40;99.90
18654;DHT22;9456;47.824;16.228;2023-07-02T01:30:08;20.40;99.90
18654;DHT22;9456;47.824;16.228;2023-07-02T01:32:38;20.50;99.90
18654;DHT22;9456;47.824;16.228;2023-07-02T01:35:09;20.50;99.90
18654;DHT22;9456;47.824;16.228;2023-07-02T01:37:38;20.50;99.90
18654;DHT22;9456;47.824;16.228;2023-07-02T01:40:08;20.50;99.90
18654;DHT22;9456;47.824;16.228;2023-07-02T01:42:37;20.50;99.90
18654;DHT22;9456;47.824;16.228;2023-07-02T01:45:07;20.40;99.90
18654;DHT22;9456;47.824;16.228;2023-07-02T01:47:36;20.40;99.90
18654;DHT22;9456;47.824;16.228;2023-07-02T01:50:07;20.40;99.90
18654;DHT22;9456;47.824;16.228;2023-07-02T01:52:36;20.30;99.90
18654;DHT22;9456;47.824;16.228;2023-07-02T01:55:05;20.20;99.90
18654;DHT22;9456;47.824;16.228;2023-07-02T01:57:34;20.20;99.90
18654;DHT22;9456;47.824;16.228;2023-07-02T02:00:04;20.10;99.90
18654;DHT22;9456;47.824;16.228;2023-07-02T02:02:35;20.10;99.90
18654;DHT22;9456;47.824;16.228;2023-07-02T02:05:05;20.00;99.90
18654;DHT22;9456;47.824;16.228;2023-07-02T02:07:33;19.90;99.90
18654;DHT22;9456;47.824;16.228;2023-07-02T02:10:03;19.90;99.90
18654;DHT22;9456;47.824;16.228;2023-07-02T02:12:32;19.80;99.90
18654;DHT22;9456;47.824;16.228;2023-07-02T02:15:01;19.80;99.90
18654;DHT22;9456;47.824;16.228;2023-07-02T02:17:30;19.70;99.90
18654;DHT22;9456;47.824;16.228;2023-07-02T02:19:58;19.60;99.90
18654;DHT22;9456;47.824;16.228;2023-07-02T02:22:27;19.60;99.90
18654;DHT22;9456;47.824;16.228;2023-07-02T02:24:56;19.50;99.90
18654;DHT22;9456;47.824;16.228;2023-07-02T02:27:25;19.50;99.90
18654;DHT22;9456;47.824;16.228;2023-07-02T02:29:54;19.40;99.90
18654;DHT22;9456;47.824;16.228;2023-07-02T02:32:23;19.40;99.90
18654;DHT22;9456;47.824;16.228;2023-07-02T02:34:52;19.30;99.90
18654;DHT22;9456;47.824;16.228;2023-07-02T02:37:25;19.30;99.90
18654;DHT22;9456;47.824;16.228;2023-07-02T02:39:54;19.30;99.90
18654;DHT22;9456;47.824;16.228;2023-07-02T02:42:23;19.20;99.90
18654;DHT22;9456;47.824;16.228;2023-07-02T02:44:52;19.20;99.90
18654;DHT22;9456;47.824;16.228;2023-07-02T02:47:21;19.10;99.90
18654;DHT22;9456;47.824;16.228;2023-07-02T02:49:50;19.00;99.90
18654;DHT22;9456;47.824;16.228;2023-07-02T02:52:18;18.80;99.90
18654;DHT22;9456;47.824;16.228;2023-07-02T02:54:49;18.70;99.90
18654;DHT22;9456;47.824;16.228;2023-07-02T02:57:16;18.60;99.90
18654;DHT22;9456;47.824;16.228;2023-07-02T02:59:45;18.60;99.90
18654;DHT22;9456;47.824;16.228;2023-07-02T03:02:14;18.60;99.90
18654;DHT22;9456;47.824;16.228;2023-07-02T03:04:43;18.60;99.90
18654;DHT22;9456;47.824;16.228;2023-07-02T03:07:12;18.70;99.90
18654;DHT22;9456;47.824;16.228;2023-07-02T03:09:41;18.70;99.90
18654;DHT22;9456;47.824;16.228;2023-07-02T03:12:10;18.70;99.90
18654;DHT22;9456;47.824;16.228;2023-07-02T03:14:39;18.80;99.90
18654;DHT22;9456;47.824;16.228;2023-07-02T03:17:08;18.80;99.90
18654;DHT22;9456;47.824;16.228;2023-07-02T03:19:37;18.80;99.90
18654;DHT22;9456;47.824;16.228;2023-07-02T03:22:06;18.80;99.90
18654;DHT22;9456;47.824;16.228;2023-07-02T03:24:35;18.80;99.90
18654;DHT22;9456;47.824;16.228;2023-07-02T03:27:05;18.90;99.90
18654;DHT22;9456;47.824;16.228;2023-07-02T03:29:34;18.90;99.90
18654;DHT22;9456;47.824;16.228;2023-07-02T03:32:03;19.00;99.90
18654;DHT22;9456;47.824;16.228;2023-07-02T03:34:32;19.00;99.90
18654;DHT22;9456;47.824;16.228;2023-07-02T03:37:01;19.00;99.90
18654;DHT22;9456;47.824;16.228;2023-07-02T03:39:30;19.10;99.90
18654;DHT22;9456;47.824;16.228;2023-07-02T03:41:59;19.20;99.90
18654;DHT22;9456;47.824;16.228;2023-07-02T03:44:28;19.20;99.90
18654;DHT22;9456;47.824;16.228;2023-07-02T03:46:57;19.30;99.90
18654;DHT22;9456;47.824;16.228;2023-07-02T03:49:26;19.40;99.90
18654;DHT22;9456;47.824;16.228;2023-07-02T03:51:54;19.50;99.90
18654;DHT22;9456;47.824;16.228;2023-07-02T03:54:23;19.70;99.90
18654;DHT22;9456;47.824;16.228;2023-07-02T03:56:52;19.80;99.90
18654;DHT22;9456;47.824;16.228;2023-07-02T03:59:21;20.00;99.90
18654;DHT22;9456;47.824;16.228;2023-07-02T04:01:50;20.00;99.90
18654;DHT22;9456;47.824;16.228;2023-07-02T04:04:19;20.10;99.90
18654;DHT22;9456;47.824;16.228;2023-07-02T04:06:48;20.10;99.90
18654;DHT22;9456;47.824;16.228;2023-07-02T04:09:17;20.10;99.90
18654;DHT22;9456;47.824;16.228;2023-07-02T04:11:46;20.20;99.90
18654;DHT22;9456;47.824;16.228;2023-07-02T04:14:15;20.20;99.90
18654;DHT22;9456;47.824;16.228;2023-07-02T04:16:45;20.20;99.90
18654;DHT22;9456;47.824;16.228;2023-07-02T04:19:13;20.20;99.90
18654;DHT22;9456;47.824;16.228;2023-07-02T04:21:43;20.30;99.90
18654;DHT22;9456;47.824;16.228;2023-07-02T04:24:12;20.30;99.90
18654;DHT22;9456;47.824;16.228;2023-07-02T04:26:40;20.30;99.90
18654;DHT22;9456;47.824;16.228;2023-07-02T04:29:10;20.40;99.90
18654;DHT22;9456;47.824;16.228;2023-07-02T04:31:39;20.50;99.90
18654;DHT22;9456;47.824;16.228;2023-07-02T04:34:08;20.60;99.90
18654;DHT22;9456;47.824;16.228;2023-07-02T04:36:37;20.70;99.90
18654;DHT22;9456;47.824;16.228;2023-07-02T04:39:06;20.70;99.90
18654;DHT22;9456;47.824;16.228;2023-07-02T04:41:36;20.80;99.90
18654;DHT22;9456;47.824;16.228;2023-07-02T04:44:05;20.80;99.90
18654;DHT22;9456;47.824;16.228;2023-07-02T04:46:34;20.90;99.90
18654;DHT22;9456;47.824;16.228;2023-07-02T04:49:03;20.90;99.90
18654;DHT22;9456;47.824;16.228;2023-07-02T04:51:32;21.00;99.90
18654;DHT22;9456;47.824;16.228;2023-07-02T04:54:01;21.00;99.90
18654;DHT22;9456;47.824;16.228;2023-07-02T04:56:30;21.00;99.90
18654;DHT22;9456;47.824;16.228;2023-07-02T04:58:59;21.00;99.90
18654;DHT22;9456;47.824;16.228;2023-07-02T05:01:29;21.10;99.90
18654;DHT22;9456;47.824;16.228;2023-07-02T05:03:58;21.10;99.90
18654;DHT22;9456;47.824;16.228;2023-07-02T05:06:27;21.10;99.90
18654;DHT22;9456;47.824;16.228;2023-07-02T05:08:56;21.10;99.90
18654;DHT22;9456;47.824;16.228;2023-07-02T05:11:25;21.10;99.90
18654;DHT22;9456;47.824;16.228;2023-07-02T05:13:54;21.10;99.90
18654;DHT22;9456;47.824;16.228;2023-07-02T05:16:22;21.10;99.90
18654;DHT22;9456;47.824;16.228;2023-07-02T05:18:51;21.10;99.90
18654;DHT22;9456;47.824;16.228;2023-07-02T05:21:20;21.10;99.90
18654;DHT22;9456;47.824;16.228;2023-07-02T05:23:49;21.10;99.90
18654;DHT22;9456;47.824;16.228;2023-07-02T05:26:18;21.10;99.90
18654;DHT22;9456;47.824;16.228;2023-07-02T05:28:47;21.10;99.90
18654;DHT22;9456;47.824;16.228;2023-07-02T05:31:16;21.00;99.90
18654;DHT22;9456;47.824;16.228;2023-07-02T05:33:45;21.00;99.90
18654;DHT22;9456;47.824;16.228;2023-07-02T05:36:14;21.00;99.90
18654;DHT22;9456;47.824;16.228;2023-07-02T05:38:43;20.90;99.90
18654;DHT22;9456;47.824;16.228;2023-07-02T05:41:12;20.90;99.90
18654;DHT22;9456;47.824;16.228;2023-07-02T05:43:52;20.90;99.90
18654;DHT22;9456;47.824;16.228;2023-07-02T05:46:21;20.90;99.90
18654;DHT22;9456;47.824;16.228;2023-07-02T05:48:50;20.90;99.90
18654;DHT22;9456;47.824;16.228;2023-07-02T05:51:22;20.90;99.90
18654;DHT22;9456;47.824;16.228;2023-07-02T05:53:51;20.90;99.90
18654;DHT22;9456;47.824;16.228;2023-07-02T05:56:19;20.90;99.90
18654;DHT22;9456;47.824;16.228;2023-07-02T05:58:48;20.90;99.90
18654;DHT22;9456;47.824;16.228;2023-07-02T06:01:17;20.90;99.90
18654;DHT22;9456;47.824;16.228;2023-07-02T06:03:48;21.00;99.90
18654;DHT22;9456;47.824;16.228;2023-07-02T06:06:15;21.00;99.90
18654;DHT22;9456;47.824;16.228;2023-07-02T06:08:44;21.00;99.90
18654;DHT22;9456;47.824;16.228;2023-07-02T06:11:14;21.00;99.90
18654;DHT22;9456;47.824;16.228;2023-07-02T06:13:42;21.10;99.90
18654;DHT22;9456;47.824;16.228;2023-07-02T06:16:11;21.00;99.90
18654;DHT22;9456;47.824;16.228;2023-07-02T06:18:40;21.10;99.90
18654;DHT22;9456;47.824;16.228;2023-07-02T06:21:09;21.10;99.90
18654;DHT22;9456;47.824;16.228;2023-07-02T06:23:42;21.20;99.90
18654;DHT22;9456;47.824;16.228;2023-07-02T06:26:11;21.30;99.90
18654;DHT22;9456;47.824;16.228;2023-07-02T06:28:40;21.40;99.90
18654;DHT22;9456;47.824;16.228;2023-07-02T06:31:09;21.40;99.90
18654;DHT22;9456;47.824;16.228;2023-07-02T06:33:40;21.40;99.90
18654;DHT22;9456;47.824;16.228;2023-07-02T06:36:09;21.50;99.90
18654;DHT22;9456;47.824;16.228;2023-07-02T06:38:38;21.50;99.90
18654;DHT22;9456;47.824;16.228;2023-07-02T06:41:07;21.60;99.90
18654;DHT22;9456;47.824;16.228;2023-07-02T06:43:36;21.70;99.90
18654;DHT22;9456;47.824;16.228;2023-07-02T06:46:10;21.80;99.90
18654;DHT22;9456;47.824;16.228;2023-07-02T06:48:39;21.80;99.90
18654;DHT22;9456;47.824;16.228;2023-07-02T06:51:08;21.90;99.90
18654;DHT22;9456;47.824;16.228;2023-07-02T06:53:37;22.10;99.90
18654;DHT22;9456;47.824;16.228;2023-07-02T06:56:07;22.20;99.90
18654;DHT22;9456;47.824;16.228;2023-07-02T06:58:35;22.20;99.90
18654;DHT22;9456;47.824;16.228;2023-07-02T07:01:04;22.30;99.90
18654;DHT22;9456;47.824;16.228;2023-07-02T07:03:33;22.40;99.90
18654;DHT22;9456;47.824;16.228;2023-07-02T07:06:02;22.40;99.90
18654;DHT22;9456;47.824;16.228;2023-07-02T07:08:31;22.40;99.90
18654;DHT22;9456;47.824;16.228;2023-07-02T07:11:00;22.50;99.90
18654;DHT22;9456;47.824;16.228;2023-07-02T07:13:29;22.50;99.90
18654;DHT22;9456;47.824;16.228;2023-07-02T07:15:58;22.60;99.90
18654;DHT22;9456;47.824;16.228;2023-07-02T07:18:27;22.70;99.90
18654;DHT22;9456;47.824;16.228;2023-07-02T07:20:55;22.80;99.90
18654;DHT22;9456;47.824;16.228;2023-07-02T07:23:24;23.00;99.90
18654;DHT22;9456;47.824;16.228;2023-07-02T07:25:53;23.10;99.90
18654;DHT22;9456;47.824;16.228;2023-07-02T07:28:22;23.20;99.90
18654;DHT22;9456;47.824;16.228;2023-07-02T07:30:51;23.30;99.90
18654;DHT22;9456;47.824;16.228;2023-07-02T07:33:20;23.40;99.90
18654;DHT22;9456;47.824;16.228;2023-07-02T07:35:58;23.60;99.90
18654;DHT22;9456;47.824;16.228;2023-07-02T07:38:27;24.20;99.90
18654;DHT22;9456;47.824;16.228;2023-07-02T07:40:56;24.90;99.90
18654;DHT22;9456;47.824;16.228;2023-07-02T07:43:25;25.60;99.90
18654;DHT22;9456;47.824;16.228;2023-07-02T07:45:54;26.50;99.90
18654;DHT22;9456;47.824;16.228;2023-07-02T07:48:24;27.20;99.90
18654;DHT22;9456;47.824;16.228;2023-07-02T07:50:54;27.30;99.90
18654;DHT22;9456;47.824;16.228;2023-07-02T07:53:22;27.00;99.90
18654;DHT22;9456;47.824;16.228;2023-07-02T07:55:51;26.60;99.90
18654;DHT22;9456;47.824;16.228;2023-07-02T07:58:20;26.30;99.90
18654;DHT22;9456;47.824;16.228;2023-07-02T08:00:50;26.30;99.90
18654;DHT22;9456;47.824;16.228;2023-07-02T08:03:18;26.50;99.90
18654;DHT22;9456;47.824;16.228;2023-07-02T08:05:48;27.00;99.90
18654;DHT22;9456;47.824;16.228;2023-07-02T08:08:17;27.20;99.90
18654;DHT22;9456;47.824;16.228;2023-07-02T08:10:45;27.30;99.90
18654;DHT22;9456;47.824;16.228;2023-07-02T08:13:14;27.20;99.90
18654;DHT22;9456;47.824;16.228;2023-07-02T08:15:43;27.20;99.90
18654;DHT22;9456;47.824;16.228;2023-07-02T08:18:13;27.50;99.90
18654;DHT22;9456;47.824;16.228;2023-07-02T08:20:41;27.60;97.80
18654;DHT22;9456;47.824;16.228;2023-07-02T08:23:11;27.90;99.10
18654;DHT22;9456;47.824;16.228;2023-07-02T08:25:40;28.50;98.30
18654;DHT22;9456;47.824;16.228;2023-07-02T08:28:09;29.50;96.30
18654;DHT22;9456;47.824;16.228;2023-07-02T08:30:38;30.30;91.80
18654;DHT22;9456;47.824;16.228;2023-07-02T08:33:07;31.10;89.70
18654;DHT22;9456;47.824;16.228;2023-07-02T08:35:36;31.50;84.20
18654;DHT22;9456;47.824;16.228;2023-07-02T08:38:05;31.70;80.20
18654;DHT22;9456;47.824;16.228;2023-07-02T08:40:33;31.90;74.10
18654;DHT22;9456;47.824;16.228;2023-07-02T08:43:02;31.60;72.40
18654;DHT22;9456;47.824;16.228;2023-07-02T08:45:31;31.30;70.50
18654;DHT22;9456;47.824;16.228;2023-07-02T08:48:00;30.80;70.40
18654;DHT22;9456;47.824;16.228;2023-07-02T08:50:34;30.20;74.40
18654;DHT22;9456;47.824;16.228;2023-07-02T08:53:03;29.50;76.90
18654;DHT22;9456;47.824;16.228;2023-07-02T08:55:32;29.00;78.30
18654;DHT22;9456;47.824;16.228;2023-07-02T08:58:01;28.40;81.50
18654;DHT22;9456;47.824;16.228;2023-07-02T09:00:30;28.00;83.70
18654;DHT22;9456;47.824;16.228;2023-07-02T09:02:59;27.60;84.30
18654;DHT22;9456;47.824;16.228;2023-07-02T09:05:28;27.20;85.40
18654;DHT22;9456;47.824;16.228;2023-07-02T09:07:57;26.90;86.10
18654;DHT22;9456;47.824;16.228;2023-07-02T09:10:30;26.50;89.10
18654;DHT22;9456;47.824;16.228;2023-07-02T09:13:05;26.20;90.90
18654;DHT22;9456;47.824;16.228;2023-07-02T09:15:38;25.90;91.30
18654;DHT22;9456;47.824;16.228;2023-07-02T09:18:17;25.70;92.70
18654;DHT22;9456;47.824;16.228;2023-07-02T09:20:46;25.40;92.50
18654;DHT22;9456;47.824;16.228;2023-07-02T09:23:14;25.10;92.40
18654;DHT22;9456;47.824;16.228;2023-07-02T09:25:43;24.80;94.00
18654;DHT22;9456;47.824;16.228;2023-07-02T09:28:17;24.60;97.00
18654;DHT22;9456;47.824;16.228;2023-07-02T09:30:53;24.30;97.60
18654;DHT22;9456;47.824;16.228;2023-07-02T09:33:22;24.20;99.10
18654;DHT22;9456;47.824;16.228;2023-07-02T09:35:51;24.10;99.90
18654;DHT22;9456;47.824;16.228;2023-07-02T09:38:21;24.00;99.90
18654;DHT22;9456;47.824;16.228;2023-07-02T09:40:50;23.90;99.90
18654;DHT22;9456;47.824;16.228;2023-07-02T09:43:18;23.70;99.90
18654;DHT22;9456;47.824;16.228;2023-07-02T09:45:53;23.70;99.90
18654;DHT22;9456;47.824;16.228;2023-07-02T09:48:16;23.60;99.90
18654;DHT22;9456;47.824;16.228;2023-07-02T09:50:46;23.50;99.90
18654;DHT22;9456;47.824;16.228;2023-07-02T09:53:19;23.60;99.90
18654;DHT22;9456;47.824;16.228;2023-07-02T09:55:48;23.70;99.90
18654;DHT22;9456;47.824;16.228;2023-07-02T09:58:17;23.80;99.90
18654;DHT22;9456;47.824;16.228;2023-07-02T10:00:46;23.90;99.90
18654;DHT22;9456;47.824;16.228;2023-07-02T10:03:15;24.00;99.90
18654;DHT22;9456;47.824;16.228;2023-07-02T10:05:44;24.10;99.90
18654;DHT22;9456;47.824;16.228;2023-07-02T10:08:16;24.60;99.90
18654;DHT22;9456;47.824;16.228;2023-07-02T10:10:45;25.40;99.90
18654;DHT22;9456;47.824;16.228;2023-07-02T10:13:14;26.10;99.90
18654;DHT22;9456;47.824;16.228;2023-07-02T10:15:43;26.50;97.60
18654;DHT22;9456;47.824;16.228;2023-07-02T10:18:12;27.00;96.60
18654;DHT22;9456;47.824;16.228;2023-07-02T10:20:41;27.20;95.00
18654;DHT22;9456;47.824;16.228;2023-07-02T10:23:10;27.60;93.70
18654;DHT22;9456;47.824;16.228;2023-07-02T10:25:39;27.90;92.30
18654;DHT22;9456;47.824;16.228;2023-07-02T10:28:18;28.00;93.60
18654;DHT22;9456;47.824;16.228;2023-07-02T10:30:46;28.40;92.60
18654;DHT22;9456;47.824;16.228;2023-07-02T10:33:15;28.80;90.20
18654;DHT22;9456;47.824;16.228;2023-07-02T10:35:44;29.10;88.00
18654;DHT22;9456;47.824;16.228;2023-07-02T10:38:17;29.40;87.60
18654;DHT22;9456;47.824;16.228;2023-07-02T10:40:44;29.70;85.20
18654;DHT22;9456;47.824;16.228;2023-07-02T10:43:13;29.90;85.40
18654;DHT22;9456;47.824;16.228;2023-07-02T10:45:42;30.00;82.30
18654;DHT22;9456;47.824;16.228;2023-07-02T10:48:11;30.10;81.10
18654;DHT22;9456;47.824;16.228;2023-07-02T10:50:40;29.80;77.60
18654;DHT22;9456;47.824;16.228;2023-07-02T10:53:15;29.40;77.70
18654;DHT22;9456;47.824;16.228;2023-07-02T10:55:44;29.30;80.70
18654;DHT22;9456;47.824;16.228;2023-07-02T10:58:13;29.00;79.00
18654;DHT22;9456;47.824;16.228;2023-07-02T11:00:45;29.10;80.40
18654;DHT22;9456;47.824;16.228;2023-07-02T11:03:18;29.10;79.70
18654;DHT22;9456;47.824;16.228;2023-07-02T11:05:47;29.10;79.90
18654;DHT22;9456;47.824;16.228;2023-07-02T11:08:16;29.00;76.80
18654;DHT22;9456;47.824;16.228;2023-07-02T11:10:45;28.90;77.80
18654;DHT22;9456;47.824;16.228;2023-07-02T11:13:15;28.80;80.50
18654;DHT22;9456;47.824;16.228;2023-07-02T11:15:43;28.80;79.30
18654;DHT22;9456;47.824;16.228;2023-07-02T11:18:13;28.60;80.60
18654;DHT22;9456;47.824;16.228;2023-07-02T11:20:42;28.30;77.50
18654;DHT22;9456;47.824;16.228;2023-07-02T11:23:20;28.20;78.20
18654;DHT22;9456;47.824;16.228;2023-07-02T11:25:59;28.20;80.10
18654;DHT22;9456;47.824;16.228;2023-07-02T11:28:28;28.30;81.70
18654;DHT22;9456;47.824;16.228;2023-07-02T11:30:57;28.30;79.70
18654;DHT22;9456;47.824;16.228;2023-07-02T11:33:36;28.40;76.20
18654;DHT22;9456;47.824;16.228;2023-07-02T11:36:07;28.50;78.60
18654;DHT22;9456;47.824;16.228;2023-07-02T11:38:36;28.70;75.60
18654;DHT22;9456;47.824;16.228;2023-07-02T11:41:05;28.80;78.50
18654;DHT22;9456;47.824;16.228;2023-07-02T11:43:34;28.70;75.10
18654;DHT22;9456;47.824;16.228;2023-07-02T11:46:03;28.80;74.70
18654;DHT22;9456;47.824;16.228;2023-07-02T11:48:32;28.80;76.50
18654;DHT22;9456;47.824;16.228;2023-07-02T11:51:01;28.70;76.50
18654;DHT22;9456;47.824;16.228;2023-07-02T11:53:30;28.80;76.50
18654;DHT22;9456;47.824;16.228;2023-07-02T11:55:59;28.80;73.20
18654;DHT22;9456;47.824;16.228;2023-07-02T12:01:17;28.50;74.70
18654;DHT22;9456;47.824;16.228;2023-07-02T12:03:46;28.50;75.50
18654;DHT22;9456;47.824;16.228;2023-07-02T12:06:15;28.60;75.40
18654;DHT22;9456;47.824;16.228;2023-07-02T12:08:44;28.50;73.40
18654;DHT22;9456;47.824;16.228;2023-07-02T12:11:13;28.50;75.00
18654;DHT22;9456;47.824;16.228;2023-07-02T12:13:42;28.30;73.60
18654;DHT22;9456;47.824;16.228;2023-07-02T12:16:11;28.40;76.40
18654;DHT22;9456;47.824;16.228;2023-07-02T12:18:40;28.40;72.90
18654;DHT22;9456;47.824;16.228;2023-07-02T12:21:09;28.40;73.60
18654;DHT22;9456;47.824;16.228;2023-07-02T12:23:38;28.20;71.40
18654;DHT22;9456;47.824;16.228;2023-07-02T12:26:07;27.90;73.40
18654;DHT22;9456;47.824;16.228;2023-07-02T12:28:36;27.90;75.00
18654;DHT22;9456;47.824;16.228;2023-07-02T12:31:05;27.90;74.70
18654;DHT22;9456;47.824;16.228;2023-07-02T12:33:33;27.80;71.30
18654;DHT22;9456;47.824;16.228;2023-07-02T12:36:02;27.80;74.10
18654;DHT22;9456;47.824;16.228;2023-07-02T12:38:31;27.80;76.40
18654;DHT22;9456;47.824;16.228;2023-07-02T12:41:00;27.90;75.20
18654;DHT22;9456;47.824;16.228;2023-07-02T12:43:29;27.90;73.40
18654;DHT22;9456;47.824;16.228;2023-07-02T12:45:58;27.80;73.10
18654;DHT22;9456;47.824;16.228;2023-07-02T12:48:27;27.80;75.10
18654;DHT22;9456;47.824;16.228;2023-07-02T12:50:56;27.80;72.20
18654;DHT22;9456;47.824;16.228;2023-07-02T12:53:25;27.60;72.80
18654;DHT22;9456;47.824;16.228;2023-07-02T12:55:54;27.50;72.80
18654;DHT22;9456;47.824;16.228;2023-07-02T12:58:23;27.30;73.70
18654;DHT22;9456;47.824;16.228;2023-07-02T13:00:52;27.20;75.80
18654;DHT22;9456;47.824;16.228;2023-07-02T13:03:21;27.00;75.00
18654;DHT22;9456;47.824;16.228;2023-07-02T13:05:50;26.70;75.40
18654;DHT22;9456;47.824;16.228;2023-07-02T13:08:19;26.60;78.00
18654;DHT22;9456;47.824;16.228;2023-07-02T13:10:48;26.40;76.00
18654;DHT22;9456;47.824;16.228;2023-07-02T13:13:17;26.20;76.10
18654;DHT22;9456;47.824;16.228;2023-07-02T13:15:46;26.00;76.80
18654;DHT22;9456;47.824;16.228;2023-07-02T13:18:15;25.70;76.90
18654;DHT22;9456;47.824;16.228;2023-07-02T13:20:44;25.60;78.90
18654;DHT22;9456;47.824;16.228;2023-07-02T13:23:13;25.50;79.80
18654;DHT22;9456;47.824;16.228;2023-07-02T13:25:42;25.50;79.20
18654;DHT22;9456;47.824;16.228;2023-07-02T13:28:11;25.50;79.70
18654;DHT22;9456;47.824;16.228;2023-07-02T13:30:40;25.40;79.80
18654;DHT22;9456;47.824;16.228;2023-07-02T13:33:09;25.40;79.60
18654;DHT22;9456;47.824;16.228;2023-07-02T13:35:38;25.30;79.30
18654;DHT22;9456;47.824;16.228;2023-07-02T13:38:07;25.30;81.70
18654;DHT22;9456;47.824;16.228;2023-07-02T13:40:36;25.30;81.00
18654;DHT22;9456;47.824;16.228;2023-07-02T13:43:05;25.30;80.90
18654;DHT22;9456;47.824;16.228;2023-07-02T13:45:34;25.30;81.00
18654;DHT22;9456;47.824;16.228;2023-07-02T13:48:03;25.20;79.90
18654;DHT22;9456;47.824;16.228;2023-07-02T13:50:32;25.20;80.70
18654;DHT22;9456;47.824;16.228;2023-07-02T13:53:00;25.20;81.70
18654;DHT22;9456;47.824;16.228;2023-07-02T13:55:29;25.20;81.70
18654;DHT22;9456;47.824;16.228;2023-07-02T13:57:58;25.20;81.90
18654;DHT22;9456;47.824;16.228;2023-07-02T14:00:28;25.10;80.30
18654;DHT22;9456;47.824;16.228;2023-07-02T14:02:57;25.10;82.30
18654;DHT22;9456;47.824;16.228;2023-07-02T14:05:26;25.00;81.40
18654;DHT22;9456;47.824;16.228;2023-07-02T14:07:55;25.00;83.40
18654;DHT22;9456;47.824;16.228;2023-07-02T14:10:24;25.00;82.80
18654;DHT22;9456;47.824;16.228;2023-07-02T14:12:53;25.00;83.00
18654;DHT22;9456;47.824;16.228;2023-07-02T14:15:23;25.00;82.10
18654;DHT22;9456;47.824;16.228;2023-07-02T14:17:51;24.90;81.30
18654;DHT22;9456;47.824;16.228;2023-07-02T14:20:20;24.90;82.90
18654;DHT22;9456;47.824;16.228;2023-07-02T14:22:49;24.90;83.90
18654;DHT22;9456;47.824;16.228;2023-07-02T14:25:18;24.90;85.60
18654;DHT22;9456;47.824;16.228;2023-07-02T14:27:47;24.90;83.60
18654;DHT22;9456;47.824;16.228;2023-07-02T14:30:16;24.90;84.00
18654;DHT22;9456;47.824;16.228;2023-07-02T14:32:45;24.90;83.30
18654;DHT22;9456;47.824;16.228;2023-07-02T14:35:14;24.90;83.30
18654;DHT22;9456;47.824;16.228;2023-07-02T14:37:43;24.90;82.50
18654;DHT22;9456;47.824;16.228;2023-07-02T14:40:13;24.90;83.20
18654;DHT22;9456;47.824;16.228;2023-07-02T14:42:42;24.90;81.90
18654;DHT22;9456;47.824;16.228;2023-07-02T14:45:11;24.90;82.60
18654;DHT22;9456;47.824;16.228;2023-07-02T14:47:40;24.90;81.50
18654;DHT22;9456;47.824;16.228;2023-07-02T14:50:10;24.90;79.40
18654;DHT22;9456;47.824;16.228;2023-07-02T14:52:39;24.80;79.70
18654;DHT22;9456;47.824;16.228;2023-07-02T14:55:08;24.80;77.10
18654;DHT22;9456;47.824;16.228;2023-07-02T14:57:37;24.70;79.30
18654;DHT22;9456;47.824;16.228;2023-07-02T15:00:08;24.70;76.70
18654;DHT22;9456;47.824;16.228;2023-07-02T15:02:37;24.70;78.40
18654;DHT22;9456;47.824;16.228;2023-07-02T15:05:07;24.60;76.40
18654;DHT22;9456;47.824;16.228;2023-07-02T15:07:36;24.50;76.20
18654;DHT22;9456;47.824;16.228;2023-07-02T15:10:05;24.40;75.90
18654;DHT22;9456;47.824;16.228;2023-07-02T15:12:34;24.30;78.00
18654;DHT22;9456;47.824;16.228;2023-07-02T15:15:03;24.30;78.10
18654;DHT22;9456;47.824;16.228;2023-07-02T15:17:32;24.30;79.20
18654;DHT22;9456;47.824;16.228;2023-07-02T15:20:01;24.30;78.70
18654;DHT22;9456;47.824;16.228;2023-07-02T15:22:30;24.30;79.60
18654;DHT22;9456;47.824;16.228;2023-07-02T15:24:59;24.30;78.70
18654;DHT22;9456;47.824;16.228;2023-07-02T15:27:28;24.30;78.90
18654;DHT22;9456;47.824;16.228;2023-07-02T15:29:57;24.20;77.70
18654;DHT22;9456;47.824;16.228;2023-07-02T15:32:26;24.00;77.90
18654;DHT22;9456;47.824;16.228;2023-07-02T15:34:55;23.90;79.50
18654;DHT22;9456;47.824;16.228;2023-07-02T15:37:24;23.70;79.80
18654;DHT22;9456;47.824;16.228;2023-07-02T15:39:53;23.60;80.20
18654;DHT22;9456;47.824;16.228;2023-07-02T15:42:22;23.50;81.10
18654;DHT22;9456;47.824;16.228;2023-07-02T15:44:52;23.40;82.10